Time;durP1;ratioP1;P1;durP2;ratioP2;P2;SDS_P1;SDS_P2;PMS_P1;PMS_P2;Temp;Humidity;BMP_temperature;BMP_pressure;BME280_temperature;BME280_humidity;BME280_pressure;Samples;Min_cycle;Max_cycle;Signal;HPM_P1;HPM_P2
2023/06/04 00:00:08;;;;;;;3.85;2.28;;;;;;;13.34;79.90;102108.06;5029051;28;20037;-74
2023/06/04 00:02:35;;;;;;;8.77;2.50;;;;;;;13.35;80.01;102113.31;5061995;28;20040;-75
2023/06/04 00:05:01;;;;;;;7.40;2.50;;;;;;;13.18;80.46;102103.50;5042069;28;20033;-75
2023/06/04 00:07:27;;;;;;;3.97;2.25;;;;;;;13.27;79.95;102112.03;5068707;28;20033;-75
2023/06/04 00:09:53;;;;;;;3.50;2.22;;;;;;;13.28;80.20;102105.72;5074698;28;20053;-75
2023/06/04 00:12:19;;;;;;;6.20;2.35;;;;;;;13.31;80.33;102117.13;5041713;28;20135;-75
2023/06/04 00:14:45;;;;;;;5.10;2.45;;;;;;;13.27;80.64;102109.34;5066167;28;20132;-75
2023/06/04 00:17:10;;;;;;;4.88;2.22;;;;;;;13.21;80.14;102111.41;5069723;28;20520;-75
2023/06/04 00:19:40;;;;;;;3.22;2.15;;;;;;;13.17;80.36;102109.81;5048259;28;20039;-74
2023/06/04 00:22:10;;;;;;;6.38;2.85;;;;;;;12.96;81.50;102108.28;5066337;28;20083;-74
2023/06/04 00:24:40;;;;;;;6.90;2.20;;;;;;;12.93;82.32;102103.09;5054295;28;20037;-73
2023/06/04 00:27:09;;;;;;;5.07;2.53;;;;;;;12.95;82.62;102101.19;5059753;28;20065;-73
2023/06/04 00:29:37;;;;;;;5.40;2.30;;;;;;;13.01;81.87;102103.56;5027871;28;20033;-76
2023/06/04 00:32:03;;;;;;;4.38;2.40;;;;;;;12.98;81.91;102100.16;5057620;28;20126;-73
2023/06/04 00:34:30;;;;;;;5.88;2.72;;;;;;;12.84;82.87;102104.44;5050146;28;20029;-76
2023/06/04 00:36:55;;;;;;;7.78;2.90;;;;;;;12.85;82.80;102107.97;5052390;28;20122;-76
2023/06/04 00:39:21;;;;;;;5.15;2.20;;;;;;;12.83;82.38;102101.84;5064996;28;20048;-76
2023/06/04 00:41:46;;;;;;;2.92;2.33;;;;;;;12.76;82.73;102108.47;5076268;28;20036;-76
2023/06/04 00:44:12;;;;;;;6.45;2.40;;;;;;;12.74;82.63;102107.66;5067820;28;20536;-76
2023/06/04 00:46:41;;;;;;;7.85;3.35;;;;;;;12.63;82.94;102103.75;5075846;28;20222;-75
2023/06/04 00:49:12;;;;;;;7.22;2.55;;;;;;;12.47;84.44;102107.28;5070026;28;20033;-76
2023/06/04 00:51:40;;;;;;;7.28;2.83;;;;;;;12.54;84.07;102116.72;5074031;28;20071;-75
2023/06/04 00:54:10;;;;;;;5.82;2.65;;;;;;;12.57;84.11;102109.41;5067855;28;20025;-75
2023/06/04 00:56:42;;;;;;;5.07;2.70;;;;;;;12.50;83.54;102116.03;5062936;28;20091;-76
2023/06/04 00:59:10;;;;;;;8.63;2.85;;;;;;;12.35;84.64;102114.09;5068301;28;20036;-75
2023/06/04 01:01:59;;;;;;;6.93;3.00;;;;;;;12.38;84.51;102113.97;5074063;28;20047;-75
2023/06/04 01:04:46;;;;;;;6.30;2.08;;;;;;;12.15;85.92;102118.66;5052006;28;20113;-75
2023/06/04 01:07:16;;;;;;;5.40;2.78;;;;;;;12.10;86.65;102123.38;5062755;28;20040;-75
2023/06/04 01:09:44;;;;;;;8.35;3.00;;;;;;;12.09;85.76;102115.41;5056687;28;20094;-75
2023/06/04 01:12:11;;;;;;;3.28;2.55;;;;;;;12.15;86.26;102115.13;5046407;28;20143;-73
2023/06/04 01:14:37;;;;;;;6.88;2.97;;;;;;;12.18;85.92;102110.47;5065804;28;20115;-76
2023/06/04 01:17:10;;;;;;;5.72;2.60;;;;;;;11.93;87.58;102120.66;5050152;28;20040;-75
2023/06/04 01:19:42;;;;;;;6.78;3.15;;;;;;;12.10;87.00;102123.38;5036455;28;20578;-75
2023/06/04 01:22:16;;;;;;;;;;;;;;;12.05;86.89;102120.06;5060938;28;20043;-74
2023/06/04 01:24:51;;;;;;;6.47;2.55;;;;;;;12.02;87.54;102122.88;5062204;28;20037;-76
2023/06/04 01:27:17;;;;;;;4.68;2.90;;;;;;;11.89;87.82;102124.41;5041780;28;20093;-75
2023/06/04 01:29:44;;;;;;;6.55;3.28;;;;;;;11.92;88.03;102121.59;5058957;28;20033;-74
2023/06/04 01:32:11;;;;;;;4.88;2.83;;;;;;;11.62;88.71;102123.88;5046294;28;20045;-74
2023/06/04 01:34:44;;;;;;;5.53;2.90;;;;;;;11.65;89.42;102127.28;5049316;28;20092;-75
2023/06/04 01:37:11;;;;;;;8.95;2.72;;;;;;;11.60;90.71;102121.31;5057418;28;20045;-75
2023/06/04 01:39:37;;;;;;;7.53;2.83;;;;;;;11.61;91.53;102115.00;5044588;28;20042;-74
2023/06/04 01:42:03;;;;;;;5.95;2.75;;;;;;;11.52;91.56;102114.56;5050992;28;20063;-74
2023/06/04 01:44:29;;;;;;;4.65;2.97;;;;;;;11.63;92.71;102112.25;5057628;28;20378;-74
2023/06/04 01:46:55;;;;;;;5.70;3.50;;;;;;;11.81;90.26;102113.19;5061449;28;20032;-74
2023/06/04 01:49:21;;;;;;;3.92;3.03;;;;;;;11.49;92.04;102110.22;5050781;28;20040;-74
2023/06/04 01:51:46;;;;;;;7.15;3.03;;;;;;;11.67;91.75;102106.69;5049657;28;20789;-74
2023/06/04 01:54:12;;;;;;;5.13;2.83;;;;;;;11.46;93.79;102112.19;5049122;28;20386;-75
2023/06/04 01:56:40;;;;;;;6.72;3.47;;;;;;;11.53;93.43;102106.47;5047548;28;20040;-74
2023/06/04 01:59:11;;;;;;;4.53;3.20;;;;;;;11.53;93.19;102110.97;5063661;28;20033;-73
2023/06/04 02:01:39;;;;;;;7.00;3.08;;;;;;;11.46;93.87;102109.53;5046038;28;20035;-74
2023/06/04 02:04:05;;;;;;;4.85;2.90;;;;;;;11.53;93.87;102108.28;5062549;28;20124;-74
2023/06/04 02:06:31;;;;;;;6.28;3.33;;;;;;;11.53;92.95;102106.47;5064583;28;20378;-73
2023/06/04 02:08:57;;;;;;;6.43;3.20;;;;;;;11.52;92.39;102115.44;5041545;28;20033;-73
2023/06/04 02:11:23;;;;;;;4.88;3.17;;;;;;;11.37;93.90;102109.00;5056505;28;20136;-74
2023/06/04 02:13:48;;;;;;;5.47;2.70;;;;;;;11.58;91.86;102117.81;5050208;28;20462;-75
2023/06/04 02:16:15;;;;;;;10.80;3.35;;;;;;;11.62;91.75;102114.06;5065103;28;20129;-74
2023/06/04 02:18:40;;;;;;;4.60;2.90;;;;;;;11.55;91.95;102123.31;5061828;28;20106;-74
2023/06/04 02:21:12;;;;;;;5.35;3.22;;;;;;;11.29;92.13;102119.16;5051776;28;20033;-74
2023/06/04 02:23:40;;;;;;;3.63;2.75;;;;;;;11.30;94.41;102114.72;5047009;28;20044;-74
2023/06/04 02:26:11;;;;;;;6.07;3.33;;;;;;;11.33;93.96;102114.56;5050281;28;20033;-74
2023/06/04 02:28:37;;;;;;;5.82;3.30;;;;;;;11.23;95.16;102113.25;5056324;28;20036;-73
2023/06/04 02:31:05;;;;;;;7.45;3.33;;;;;;;11.15;95.44;102109.13;5062629;28;20110;-74
2023/06/04 02:33:30;;;;;;;5.93;3.22;;;;;;;11.18;96.39;102104.59;5053455;28;20048;-74
2023/06/04 02:35:56;;;;;;;4.68;3.60;;;;;;;11.11;95.69;102106.69;5061869;28;20040;-75
2023/06/04 02:38:22;;;;;;;8.93;3.33;;;;;;;11.04;95.97;102114.06;5060581;28;20490;-76
2023/06/04 02:40:47;;;;;;;6.97;3.17;;;;;;;11.02;96.57;102113.28;5050646;28;20040;-74
2023/06/04 02:43:16;;;;;;;5.05;3.40;;;;;;;11.14;95.55;102111.84;5061353;28;20028;-74
2023/06/04 02:45:42;;;;;;;7.60;3.75;;;;;;;11.16;95.62;102115.34;5049680;28;20041;-76
2023/06/04 02:48:10;;;;;;;8.52;3.35;;;;;;;11.06;96.59;102114.03;5065407;28;20597;-76
2023/06/04 02:50:36;;;;;;;6.07;2.90;;;;;;;11.13;96.65;102116.34;5070831;28;20029;-73
2023/06/04 02:53:02;;;;;;;9.65;3.67;;;;;;;11.13;96.10;102105.66;5061388;28;20040;-76
2023/06/04 02:55:29;;;;;;;8.25;3.25;;;;;;;11.00;98.27;102107.16;5057187;28;20040;-74
2023/06/04 02:57:54;;;;;;;5.00;2.85;;;;;;;11.01;98.15;102113.38;5048109;28;20033;-73
2023/06/04 03:00:20;;;;;;;10.82;3.83;;;;;;;11.10;97.20;102103.13;5039491;28;20068;-74
2023/06/04 03:02:47;;;;;;;8.85;3.60;;;;;;;11.06;96.86;102101.53;5062271;28;20037;-73
2023/06/04 03:05:14;;;;;;;6.75;3.30;;;;;;;10.92;98.19;102103.97;5062867;28;20064;-74
2023/06/04 03:07:44;;;;;;;7.50;3.17;;;;;;;10.95;98.27;102108.31;5050312;28;20114;-76
2023/06/04 03:10:12;;;;;;;7.38;3.50;;;;;;;10.77;99.67;102110.84;5052386;28;20265;-76
2023/06/04 03:12:41;;;;;;;5.28;3.17;;;;;;;10.62;100.00;102109.69;5056755;28;20029;-75
2023/06/04 03:15:08;;;;;;;5.35;3.15;;;;;;;10.61;100.00;102113.31;5061668;28;20028;-75
2023/06/04 03:17:35;;;;;;;7.78;3.63;;;;;;;10.68;100.00;102110.38;5048609;28;20175;-75
2023/06/04 03:20:03;;;;;;;3.95;2.97;;;;;;;10.67;100.00;102119.31;5048928;28;20040;-75
2023/06/04 03:22:29;;;;;;;6.82;3.30;;;;;;;10.77;100.00;102115.31;5061037;28;20125;-75
2023/06/04 03:24:55;;;;;;;6.95;4.53;;;;;;;10.69;100.00;102112.09;5064672;28;20037;-75
2023/06/04 03:27:21;;;;;;;6.07;3.67;;;;;;;10.76;100.00;102110.91;5054928;28;20033;-75
2023/06/04 03:29:47;;;;;;;5.43;3.80;;;;;;;10.56;100.00;102112.63;5064054;28;20804;-75
2023/06/04 03:32:15;;;;;;;6.55;3.90;;;;;;;10.66;100.00;102112.25;5045871;28;20669;-75
2023/06/04 03:34:42;;;;;;;6.95;3.78;;;;;;;10.80;100.00;102109.84;5038354;28;20029;-75
2023/06/04 03:37:11;;;;;;;5.13;3.50;;;;;;;11.06;100.00;102106.00;5047547;28;20128;-75
2023/06/04 03:39:37;;;;;;;8.23;4.10;;;;;;;11.67;96.56;102120.06;5058561;28;20037;-75
2023/06/04 03:42:05;;;;;;;9.68;3.60;;;;;;;12.17;92.42;102107.88;5051041;28;20035;-75
2023/06/04 03:44:33;;;;;;;5.45;3.35;;;;;;;12.51;89.35;102103.53;5066974;28;20104;-76
2023/06/04 03:46:59;;;;;;;6.57;3.60;;;;;;;12.59;86.98;102103.97;5053481;28;20344;-75
2023/06/04 03:49:25;;;;;;;10.20;3.42;;;;;;;12.95;86.00;102096.72;5057205;28;20051;-75
2023/06/04 03:51:51;;;;;;;6.97;3.47;;;;;;;13.41;82.21;102101.44;5065603;28;20493;-76
2023/06/04 03:54:18;;;;;;;7.47;3.30;;;;;;;13.70;79.41;102099.78;5065027;28;20105;-75
2023/06/04 03:56:46;;;;;;;7.63;3.88;;;;;;;13.95;77.54;102107.28;5068174;28;21362;-75
2023/06/04 03:59:12;;;;;;;6.07;3.30;;;;;;;13.90;77.71;102104.88;5053843;28;20043;-75
2023/06/04 04:01:40;;;;;;;5.95;3.15;;;;;;;14.31;75.16;102108.78;5061748;28;20090;-75
2023/06/04 04:04:05;;;;;;;6.05;3.53;;;;;;;14.47;73.41;102099.81;5056530;28;20101;-75
2023/06/04 04:06:36;;;;;;;6.88;3.53;;;;;;;14.64;72.40;102105.97;5070152;28;20087;-75
2023/06/04 04:09:07;;;;;;;7.28;3.40;;;;;;;15.08;71.53;102105.94;5055336;28;20037;-76
2023/06/04 04:11:34;;;;;;;5.18;3.35;;;;;;;15.02;71.25;102103.66;5064337;28;20059;-75
2023/06/04 04:14:02;;;;;;;8.50;3.50;;;;;;;15.15;70.17;102112.66;5044374;28;20044;-74
2023/06/04 04:16:28;;;;;;;4.00;3.40;;;;;;;14.96;70.99;102117.44;5063466;28;20555;-74
2023/06/04 04:18:54;;;;;;;7.05;3.50;;;;;;;14.88;69.77;102117.06;5049785;28;20033;-74
2023/06/04 04:21:20;;;;;;;7.70;3.58;;;;;;;15.21;70.75;102116.78;5070948;28;20050;-73
2023/06/04 04:23:46;;;;;;;8.13;3.88;;;;;;;14.53;70.44;102120.03;5052938;28;20615;-76
2023/06/04 04:26:16;;;;;;;5.97;3.35;;;;;;;14.33;70.92;102123.00;5050939;28;20033;-74
2023/06/04 04:28:44;;;;;;;;;;;;;;;15.46;69.04;102111.59;5058503;28;20107;-74
2023/06/04 04:31:11;;;;;;;6.93;3.50;;;;;;;16.04;64.84;102113.22;5060367;28;19917;-76
2023/06/04 04:33:39;;;;;;;10.27;3.70;;;;;;;16.07;64.83;102109.47;5042796;28;20043;-75
2023/06/04 04:36:14;;;;;;;4.50;3.13;;;;;;;16.40;64.94;102113.56;5031119;28;20041;-75
2023/06/04 04:38:45;;;;;;;5.35;3.40;;;;;;;15.39;66.92;102117.47;5052233;28;20120;-75
2023/06/04 04:41:12;;;;;;;9.35;3.80;;;;;;;15.59;65.36;102121.56;5063900;28;20025;-75
2023/06/04 04:43:43;;;;;;;11.00;4.07;;;;;;;16.92;63.71;102112.69;5033780;28;20650;-75
2023/06/04 04:46:19;;;;;;;7.35;3.88;;;;;;;17.20;63.50;102109.78;5039340;28;20032;-73
2023/06/04 04:48:46;;;;;;;5.82;3.63;;;;;;;16.91;63.74;102108.28;5049463;28;20044;-75
2023/06/04 04:51:11;;;;;;;6.93;4.10;;;;;;;16.67;64.55;102108.13;5044566;28;20062;-76
2023/06/04 04:53:40;;;;;;;7.13;3.50;;;;;;;17.46;62.34;102107.91;5069323;28;20111;-75
2023/06/04 04:56:07;;;;;;;8.52;3.72;;;;;;;17.40;61.45;102104.81;5049712;28;20092;-73
2023/06/04 04:58:36;;;;;;;3.72;3.35;;;;;;;16.83;62.59;102104.31;5039617;28;20106;-75
2023/06/04 05:01:02;;;;;;;6.00;4.00;;;;;;;17.50;63.06;102109.44;5067220;28;20037;-76
2023/06/04 05:03:28;;;;;;;5.32;3.95;;;;;;;18.26;59.30;102105.63;5058523;28;20542;-75
2023/06/04 05:05:54;;;;;;;8.00;4.30;;;;;;;18.07;59.68;102098.06;5064873;28;20112;-74
2023/06/04 05:08:20;;;;;;;8.77;4.35;;;;;;;16.85;63.42;102109.56;5052186;28;20039;-73
2023/06/04 05:10:45;;;;;;;12.13;4.10;;;;;;;17.07;61.58;102108.97;5055837;28;20028;-74
2023/06/04 05:13:11;;;;;;;6.05;3.50;;;;;;;16.53;63.21;102125.25;5052396;28;20044;-74
2023/06/04 05:15:43;;;;;;;9.02;4.47;;;;;;;17.81;60.77;102110.78;5040044;28;20037;-73
2023/06/04 05:18:10;;;;;;;6.55;3.60;;;;;;;17.58;60.12;102112.44;5050736;28;20045;-74
2023/06/04 05:20:40;;;;;;;9.80;4.35;;;;;;;18.26;60.03;102104.75;5060124;28;20035;-73
2023/06/04 05:23:12;;;;;;;7.50;4.30;;;;;;;18.03;58.79;102107.38;5051655;28;20041;-73
2023/06/04 05:25:43;;;;;;;5.43;4.13;;;;;;;17.53;59.93;102101.13;5043452;28;20238;-74
2023/06/04 05:28:12;;;;;;;6.90;3.80;;;;;;;18.12;58.30;102097.69;5036876;28;20107;-74
2023/06/04 05:30:41;;;;;;;5.93;4.13;;;;;;;18.75;57.83;102096.50;5046267;28;20032;-74
2023/06/04 05:33:17;;;;;;;6.88;3.78;;;;;;;18.23;60.10;102105.88;5062875;28;20148;-74
2023/06/04 05:35:48;;;;;;;8.90;4.03;;;;;;;18.19;59.44;102095.41;5057085;28;20033;-74
2023/06/04 05:38:17;;;;;;;5.80;3.70;;;;;;;17.71;61.77;102096.19;5043729;28;20037;-74
2023/06/04 05:40:45;;;;;;;9.20;3.55;;;;;;;17.17;61.52;102101.06;5056375;28;20032;-74
2023/06/04 05:43:11;;;;;;;8.43;3.70;;;;;;;17.55;61.46;102092.91;5059155;28;20033;-74
2023/06/04 05:45:37;;;;;;;6.32;3.75;;;;;;;18.32;60.77;102090.78;5046269;28;20037;-74
2023/06/04 05:48:04;;;;;;;5.82;3.80;;;;;;;17.49;62.33;102096.06;5056731;28;20043;-74
2023/06/04 05:50:30;;;;;;;8.05;4.20;;;;;;;18.07;61.93;102091.78;5015206;28;20033;-74
2023/06/04 05:52:56;;;;;;;7.90;4.10;;;;;;;17.24;61.83;102102.34;5055801;28;20888;-74
2023/06/04 05:55:23;;;;;;;6.60;3.90;;;;;;;17.64;62.93;102097.63;5026659;28;20064;-74
2023/06/04 05:57:53;;;;;;;6.85;3.60;;;;;;;18.16;60.71;102095.63;5033635;28;20047;-74
2023/06/04 06:00:20;;;;;;;5.68;3.60;;;;;;;18.00;60.82;102104.03;5046887;28;20596;-74
2023/06/04 06:02:54;;;;;;;8.45;3.80;;;;;;;17.40;63.41;102105.66;5035379;28;20036;-74
2023/06/04 06:05:37;;;;;;;8.10;4.18;;;;;;;18.51;61.34;102101.06;5055488;28;20213;-78
2023/06/04 06:08:11;;;;;;;8.75;4.10;;;;;;;18.12;60.87;102103.09;5048951;28;20037;-74
2023/06/04 06:10:37;;;;;;;5.95;3.88;;;;;;;18.19;61.96;102109.78;5045331;28;21158;-74
2023/06/04 06:13:02;;;;;;;5.72;3.80;;;;;;;18.07;61.06;102114.25;5063428;28;20029;-75
2023/06/04 06:15:29;;;;;;;9.95;4.50;;;;;;;18.57;60.22;102105.97;5064321;28;20064;-74
2023/06/04 06:17:55;;;;;;;8.60;3.83;;;;;;;18.16;61.12;102107.28;5062283;28;20174;-74
2023/06/04 06:20:21;;;;;;;6.32;3.65;;;;;;;17.98;62.55;102111.38;5062880;28;20042;-74
2023/06/04 06:22:48;;;;;;;10.68;3.90;;;;;;;18.46;64.58;102120.31;5039569;28;20029;-75
2023/06/04 06:25:15;;;;;;;9.88;4.20;;;;;;;17.70;64.41;102117.91;5038218;28;20029;-74
2023/06/04 06:27:48;;;;;;;7.10;4.22;;;;;;;17.82;61.46;102120.63;5051358;28;20142;-75
2023/06/04 06:30:18;;;;;;;12.88;4.35;;;;;;;17.44;63.17;102120.66;5044107;28;20090;-75
2023/06/04 06:32:43;;;;;;;6.93;3.55;;;;;;;17.78;62.79;102120.94;5051288;28;20540;-76
2023/06/04 06:35:10;;;;;;;6.50;3.88;;;;;;;18.01;63.43;102119.22;5071858;28;20040;-75
2023/06/04 06:37:41;;;;;;;8.35;3.92;;;;;;;18.06;63.98;102130.56;5047384;28;20107;-74
2023/06/04 06:40:10;;;;;;;4.93;3.33;;;;;;;18.66;62.79;102120.63;5048675;28;20140;-74
2023/06/04 06:42:37;;;;;;;6.65;4.22;;;;;;;18.43;64.58;102125.09;5027293;28;20040;-74
2023/06/04 06:45:03;;;;;;;10.13;5.00;;;;;;;18.29;62.71;102120.75;5043262;28;20068;-74
2023/06/04 06:47:28;;;;;;;5.85;3.72;;;;;;;18.87;61.96;102118.97;5038883;28;20312;-74
2023/06/04 06:49:54;;;;;;;6.13;4.03;;;;;;;17.93;63.77;102125.22;5048946;28;20036;-75
2023/06/04 06:52:20;;;;;;;8.38;4.35;;;;;;;18.34;62.76;102129.34;5059436;28;20017;-75
2023/06/04 06:54:46;;;;;;;9.85;4.30;;;;;;;18.38;62.91;102128.16;5044908;28;20443;-77
2023/06/04 06:57:13;;;;;;;6.00;4.00;;;;;;;18.70;62.83;102131.13;5044102;28;20033;-76
2023/06/04 06:59:42;;;;;;;7.20;4.10;;;;;;;19.28;61.57;102131.97;5058059;28;20136;-75
2023/06/04 07:02:11;;;;;;;8.10;3.85;;;;;;;18.98;59.87;102135.25;5047213;28;20033;-77
2023/06/04 07:04:37;;;;;;;7.97;3.67;;;;;;;18.98;60.52;102137.09;5055250;28;20098;-76
2023/06/04 07:07:03;;;;;;;10.18;4.47;;;;;;;18.70;61.23;102132.97;5030913;28;20076;-75
2023/06/04 07:09:29;;;;;;;11.00;4.07;;;;;;;18.94;61.87;102130.19;5055441;28;20037;-74
2023/06/04 07:11:55;;;;;;;11.18;3.85;;;;;;;19.00;62.38;102133.28;5041443;28;20033;-76
2023/06/04 07:14:21;;;;;;;8.23;4.20;;;;;;;19.42;60.86;102131.69;5045392;28;20044;-75
2023/06/04 07:16:46;;;;;;;6.35;4.32;;;;;;;19.10;60.31;102136.13;5036960;28;20048;-75
2023/06/04 07:19:12;;;;;;;6.35;3.58;;;;;;;19.35;61.77;102133.19;5046234;28;20041;-75
2023/06/04 07:21:39;;;;;;;10.98;4.38;;;;;;;19.48;59.62;102132.19;5047402;28;20712;-75
2023/06/04 07:24:10;;;;;;;9.07;4.10;;;;;;;19.60;60.38;102133.94;5045412;28;20872;-75
2023/06/04 07:26:36;;;;;;;9.52;4.93;;;;;;;20.04;61.40;102137.56;5045921;28;20068;-74
2023/06/04 07:29:02;;;;;;;9.02;4.13;;;;;;;20.61;60.26;102147.25;5043485;28;20043;-75
2023/06/04 07:31:28;;;;;;;7.45;4.00;;;;;;;19.83;55.55;102145.59;5045288;28;20314;-74
2023/06/04 07:33:53;;;;;;;8.48;3.90;;;;;;;19.86;58.75;102148.06;5042791;28;20057;-78
2023/06/04 07:36:20;;;;;;;10.15;4.30;;;;;;;19.32;61.18;102148.78;5037188;28;20052;-76
2023/06/04 07:38:46;;;;;;;9.60;4.35;;;;;;;19.88;61.29;102156.91;5042866;28;20593;-76
2023/06/04 07:41:11;;;;;;;8.23;4.15;;;;;;;20.25;59.79;102148.47;5037815;28;20132;-76
2023/06/04 07:43:37;;;;;;;6.00;3.85;;;;;;;19.95;58.35;102147.31;5042779;28;20142;-77
2023/06/04 07:46:05;;;;;;;9.85;4.40;;;;;;;20.10;57.72;102148.75;5027131;28;20045;-77
2023/06/04 07:48:31;;;;;;;5.60;4.00;;;;;;;20.66;58.73;102148.56;5039568;28;20151;-77
2023/06/04 07:51:03;;;;;;;9.40;4.35;;;;;;;20.52;58.32;102148.03;5044910;28;20167;-77
2023/06/04 07:53:29;;;;;;;9.55;4.00;;;;;;;20.35;55.32;102147.56;5042406;28;20690;-76
2023/06/04 07:55:57;;;;;;;13.82;4.85;;;;;;;20.40;58.04;102160.72;5031053;28;20051;-76
2023/06/04 07:58:22;;;;;;;6.93;4.35;;;;;;;20.40;57.06;102155.31;5048494;28;20036;-76
2023/06/04 08:00:48;;;;;;;7.00;3.50;;;;;;;20.68;54.20;102143.00;5048183;28;20746;-75
2023/06/04 08:03:15;;;;;;;8.15;3.83;;;;;;;20.48;54.61;102150.13;5040192;28;20140;-75
2023/06/04 08:05:42;;;;;;;6.72;3.90;;;;;;;20.41;54.41;102148.91;5032460;28;20044;-74
2023/06/04 08:08:11;;;;;;;7.57;4.53;;;;;;;20.66;59.95;102153.13;5049390;28;20503;-74
2023/06/04 08:10:40;;;;;;;5.40;3.63;;;;;;;20.67;54.80;102153.00;5044991;28;20029;-77
2023/06/04 08:13:08;;;;;;;10.73;3.80;;;;;;;20.71;54.06;102145.47;5047253;28;20183;-76
2023/06/04 08:15:41;;;;;;;5.85;3.85;;;;;;;20.74;59.50;102141.66;5047495;28;20037;-73
2023/06/04 08:18:10;;;;;;;8.35;3.75;;;;;;;21.17;55.81;102142.34;5043519;28;20068;-76
2023/06/04 08:20:37;;;;;;;6.63;3.65;;;;;;;20.92;52.27;102138.19;5048229;28;20146;-77
2023/06/04 08:23:02;;;;;;;10.15;3.22;;;;;;;21.16;50.70;102139.75;5065956;28;20044;-75
2023/06/04 08:25:30;;;;;;;6.60;3.60;;;;;;;20.90;54.71;102140.19;5042313;28;20040;-75
2023/06/04 08:27:55;;;;;;;10.32;4.57;;;;;;;20.84;56.60;102150.72;5054891;28;20064;-75
2023/06/04 08:30:22;;;;;;;7.25;3.65;;;;;;;20.76;55.74;102148.63;5048960;28;20454;-74
2023/06/04 08:32:48;;;;;;;8.93;4.80;;;;;;;20.99;54.39;102146.66;5049844;28;20055;-77
2023/06/04 08:35:14;;;;;;;6.47;3.47;;;;;;;21.09;51.68;102150.31;5070719;28;20069;-77
2023/06/04 08:37:41;;;;;;;6.90;3.30;;;;;;;21.55;54.21;102142.69;5052023;28;21169;-76
2023/06/04 08:40:11;;;;;;;7.82;3.50;;;;;;;21.00;51.93;102151.09;5060083;28;20254;-77
2023/06/04 08:42:44;;;;;;;7.63;3.45;;;;;;;21.04;51.96;102149.84;5058171;28;20029;-77
2023/06/04 08:45:13;;;;;;;4.28;2.42;;;;;;;21.83;51.22;102144.63;5056170;28;20033;-74
2023/06/04 08:47:44;;;;;;;12.35;3.90;;;;;;;21.95;49.62;102148.97;5052893;28;20168;-76
2023/06/04 08:50:12;;;;;;;5.80;3.60;;;;;;;21.68;54.03;102154.16;5052304;28;20036;-79
2023/06/04 08:52:40;;;;;;;4.28;3.20;;;;;;;21.52;54.63;102151.97;5051674;28;20028;-77
2023/06/04 08:55:15;;;;;;;8.18;3.25;;;;;;;21.49;52.99;102151.38;5049145;28;20228;-76
2023/06/04 08:57:42;;;;;;;5.95;3.10;;;;;;;21.39;50.86;102152.22;5048607;28;20052;-78
2023/06/04 09:00:12;;;;;;;5.60;2.70;;;;;;;21.31;50.22;102160.16;5061260;28;20036;-78
2023/06/04 09:02:40;;;;;;;5.70;2.65;;;;;;;21.59;49.10;102155.88;5058862;28;20037;-77
2023/06/04 09:05:12;;;;;;;3.42;2.67;;;;;;;21.53;49.09;102152.81;5041839;28;20121;-76
2023/06/04 09:07:41;;;;;;;6.82;2.50;;;;;;;21.96;48.51;102155.25;5051265;28;20035;-75
2023/06/04 09:10:15;;;;;;;6.18;2.65;;;;;;;21.90;49.28;102153.97;5061480;28;20039;-75
2023/06/04 09:12:46;;;;;;;5.20;2.67;;;;;;;22.25;48.43;102149.91;5018103;28;20037;-76
2023/06/04 09:15:12;;;;;;;5.75;2.35;;;;;;;22.29;49.10;102148.63;5046740;28;20038;-76
2023/06/04 09:17:40;;;;;;;6.43;2.50;;;;;;;22.16;45.74;102148.03;5040420;28;20045;-75
2023/06/04 09:20:17;;;;;;;3.47;1.90;;;;;;;22.52;45.50;102151.91;5030713;28;20093;-76
2023/06/04 09:22:43;;;;;;;3.95;2.30;;;;;;;22.35;48.28;102149.91;5042133;28;20597;-77
2023/06/04 09:25:21;;;;;;;4.50;2.40;;;;;;;22.23;46.65;102149.19;5042611;28;20557;-75
2023/06/04 09:27:46;;;;;;;5.97;1.98;;;;;;;22.44;48.23;102152.66;5042939;28;20067;-76
2023/06/04 09:30:12;;;;;;;10.40;2.50;;;;;;;22.19;44.27;102145.91;5048753;28;20041;-76
2023/06/04 09:32:37;;;;;;;4.18;2.40;;;;;;;22.31;45.43;102148.47;5046716;28;20114;-75
2023/06/04 09:35:13;;;;;;;5.18;1.90;;;;;;;22.36;44.02;102147.06;5047559;28;20033;-76
2023/06/04 09:37:52;;;;;;;3.63;1.83;;;;;;;22.61;43.21;102145.63;5055142;28;20752;-75
2023/06/04 09:40:19;;;;;;;4.65;2.20;;;;;;;22.60;44.62;102151.22;5042761;28;20030;-75
2023/06/04 09:42:53;;;;;;;5.97;1.80;;;;;;;;;;5049212;28;20100;-76
2023/06/04 09:45:29;;;;;;;2.95;1.85;;;;;;;22.89;42.69;102140.31;5047967;28;20037;-77
2023/06/04 09:47:55;;;;;;;6.70;2.30;;;;;;;22.72;42.02;102141.88;5048496;28;20184;-78
2023/06/04 09:50:31;;;;;;;2.17;1.50;;;;;;;22.45;40.78;102146.19;5040719;28;20374;-78
2023/06/04 09:52:57;;;;;;;3.92;1.73;;;;;;;22.78;39.07;102130.41;5042252;28;20116;-75
2023/06/04 09:55:23;;;;;;;3.45;1.90;;;;;;;22.49;39.58;102125.88;5036795;28;20033;-75
2023/06/04 09:57:50;;;;;;;1.70;1.50;;;;;;;22.39;39.56;102135.03;5026799;28;20841;-76
2023/06/04 10:00:18;;;;;;;2.58;1.23;;;;;;;22.71;41.42;102132.03;5059427;28;20029;-76
2023/06/04 10:02:46;;;;;;;2.35;1.40;;;;;;;22.77;42.08;102136.03;5045539;28;20036;-75
2023/06/04 10:05:15;;;;;;;7.07;1.50;;;;;;;22.42;38.67;102146.47;5058463;28;20038;-77
2023/06/04 10:07:45;;;;;;;4.43;1.77;;;;;;;22.57;40.60;102138.75;5042098;28;20517;-77
2023/06/04 10:10:18;;;;;;;4.22;1.30;;;;;;;22.35;40.00;102137.19;5047207;28;20625;-75
2023/06/04 10:12:45;;;;;;;4.90;1.77;;;;;;;22.31;40.65;102137.63;5058875;28;20025;-75
2023/06/04 10:15:12;;;;;;;6.63;1.50;;;;;;;22.88;39.72;102136.75;5043872;28;20053;-77
2023/06/04 10:17:40;;;;;;;2.75;1.35;;;;;;;22.44;38.33;102130.91;5059398;28;20138;-77
2023/06/04 10:20:11;;;;;;;3.60;1.60;;;;;;;22.37;38.98;102139.75;5040277;28;20041;-76
2023/06/04 10:22:42;;;;;;;6.15;1.35;;;;;;;22.41;39.89;102138.47;5049128;28;20033;-77
2023/06/04 10:25:12;;;;;;;5.07;1.83;;;;;;;22.99;37.98;102131.16;5053037;28;20116;-77
2023/06/04 10:27:40;;;;;;;5.57;1.48;;;;;;;22.98;40.82;102134.84;5041561;28;20115;-78
2023/06/04 10:30:16;;;;;;;2.38;1.50;;;;;;;22.86;38.74;102127.84;5059428;28;20087;-77
2023/06/04 10:32:42;;;;;;;1.75;1.30;;;;;;;22.75;37.92;102126.16;5046824;28;20071;-78
2023/06/04 10:35:11;;;;;;;4.57;1.75;;;;;;;23.18;41.76;102130.22;5050573;28;20129;-78
2023/06/04 10:37:47;;;;;;;2.40;1.52;;;;;;;23.02;40.27;102127.25;5040729;28;20085;-78
2023/06/04 10:40:13;;;;;;;1.60;1.42;;;;;;;23.24;41.97;102126.94;5038550;28;20103;-77
2023/06/04 10:42:42;;;;;;;7.35;1.83;;;;;;;22.47;38.90;102136.03;5023301;28;20795;-75
2023/06/04 10:45:11;;;;;;;11.07;2.17;;;;;;;22.76;39.98;102124.28;5016803;28;20033;-76
2023/06/04 10:47:40;;;;;;;3.70;1.73;;;;;;;22.61;37.71;102142.06;5019414;28;20051;-76
2023/06/04 10:50:12;;;;;;;4.75;1.83;;;;;;;23.06;40.14;102128.69;5026575;28;20030;-77
2023/06/04 10:53:05;;;;;;;4.10;1.83;;;;;;;23.11;39.71;102133.69;5013680;28;20030;-76
2023/06/04 10:55:32;;;;;;;2.70;1.77;;;;;;;23.08;38.13;102126.66;5024570;28;21165;-77
2023/06/04 10:57:59;;;;;;;3.60;1.55;;;;;;;23.52;38.16;102121.50;5039782;28;20595;-77
2023/06/04 11:00:55;;;;;;;2.92;1.55;;;;;;;23.21;39.21;102126.34;5025603;28;20625;-75
2023/06/04 11:03:20;;;;;;;3.65;1.80;;;;;;;23.39;39.63;102121.81;5014890;28;20053;-75
2023/06/04 11:05:47;;;;;;;2.22;1.45;;;;;;;23.36;39.91;102130.31;5023696;28;20127;-76
2023/06/04 11:08:15;;;;;;;7.55;1.90;;;;;;;23.12;37.96;102124.53;5021898;28;20057;-75
2023/06/04 11:10:45;;;;;;;8.73;2.08;;;;;;;23.52;36.30;102116.91;5027112;28;20033;-75
2023/06/04 11:13:12;;;;;;;3.95;1.58;;;;;;;22.73;41.76;102119.97;5023644;28;20107;-74
2023/06/04 11:15:46;;;;;;;2.28;1.85;;;;;;;22.79;39.51;102120.41;5028566;28;20441;-77
2023/06/04 11:18:22;;;;;;;4.57;1.65;;;;;;;23.03;39.90;102119.97;5027880;28;20057;-76
2023/06/04 11:20:59;;;;;;;3.67;1.58;;;;;;;23.03;37.94;102114.50;5015480;28;20044;-77
2023/06/04 11:23:25;;;;;;;1.40;1.30;;;;;;;22.82;39.53;102114.69;5029281;28;20029;-75
2023/06/04 11:25:52;;;;;;;3.17;1.70;;;;;;;23.13;38.97;102112.63;5033254;28;20038;-76
2023/06/04 11:28:18;;;;;;;4.88;2.00;;;;;;;22.55;38.34;102119.03;5028173;28;20120;-77